Kliftrans — PCDB — position and weather

sailwx.info

Track history (hours):
 
Tides and Currents Weather Stations Pressure Air Temp Water Temp Dewpoint Dewpoint Depression Visibility Wind Speed Wind Dir Waves Ship Positions

Kliftrans

Last reported at 2015-Mar-31 17:33 UTC. Time now 2015-Mar-31 18:11 UTC.
Position N 43°26' E 004°54'.

Length 88 m; draft 3.2 m.

Type: Cargo ship. MMSI: 245132000.

Date/timePositionNaut miles runAvg speedWind from/ knotsBaromVisibWave heightAir tempDewpointWater temp
2015-Mar-31 17:33N 43°26' E 004°54'0 0.0
2015-Mar-31 16:30N 43°26' E 004°54'0 0.0
2015-Mar-31 15:33N 43°26' E 004°54'1 1.1
2015-Mar-31 14:33N 43°25' E 004°53'2 1.5
2015-Mar-31 13:25N 43°25' E 004°55'0 0.0
2015-Mar-31 12:31N 43°25' E 004°55'0 0.1
2015-Mar-31 11:33N 43°25' E 004°55'7 7.0
2015-Mar-31 10:33N 43°18' E 005°00'8 7.7
2015-Mar-31 09:33N 43°11' E 005°04'  
2015-Mar-29 00:09N 39°15' E 007°51'41 8.1
2015-Mar-28 19:08N 38°41' E 008°20'12 6.9
2015-Mar-28 17:24N 38°35' E 008°33'  
Track history (hours):
 
Tides and Currents Weather Stations Pressure Air Temp Water Temp Dewpoint Dewpoint Depression Visibility Wind Speed Wind Dir Waves Ship Positions

Kliftrans

Last reported at 2015-Mar-31 17:33 UTC. Time now 2015-Mar-31 18:11 UTC.
Position N 43°26' E 004°54'.

Length 88 m; draft 3.2 m.

Type: Cargo ship. MMSI: 245132000.

Date/timePositionNaut miles runAvg speedWind from/ knotsBaromVisibWave heightAir tempDewpointWater temp
2015-Mar-31 17:33N 43°26' E 004°54'0 0.0
2015-Mar-31 16:30N 43°26' E 004°54'0 0.0
2015-Mar-31 15:33N 43°26' E 004°54'1 1.1
2015-Mar-31 14:33N 43°25' E 004°53'2 1.5
2015-Mar-31 13:25N 43°25' E 004°55'0 0.0
2015-Mar-31 12:31N 43°25' E 004°55'0 0.1
2015-Mar-31 11:33N 43°25' E 004°55'7 7.0
2015-Mar-31 10:33N 43°18' E 005°00'8 7.7
2015-Mar-31 09:33N 43°11' E 005°04'  
2015-Mar-29 00:09N 39°15' E 007°51'41 8.1
2015-Mar-28 19:08N 38°41' E 008°20'12 6.9
2015-Mar-28 17:24N 38°35' E 008°33'  

Dump ship's entire track history